sensor_id;sensor_type;location;lat;lon;timestamp;temperature;humidity
2062;DHT22;11070;51.336;12.340;2024-02-21T00:02:19;8.50;99.90
2062;DHT22;11070;51.336;12.340;2024-02-21T00:04:45;8.60;99.90
2062;DHT22;11070;51.336;12.340;2024-02-21T00:07:11;8.50;99.90
2062;DHT22;11070;51.336;12.340;2024-02-21T00:09:36;8.60;99.90
2062;DHT22;11070;51.336;12.340;2024-02-21T00:12:02;8.60;99.90
2062;DHT22;11070;51.336;12.340;2024-02-21T00:14:28;8.60;99.90
2062;DHT22;11070;51.336;12.340;2024-02-21T00:16:54;8.50;99.90
2062;DHT22;11070;51.336;12.340;2024-02-21T00:19:19;8.50;99.90
2062;DHT22;11070;51.336;12.340;2024-02-21T00:21:46;8.50;99.90
2062;DHT22;11070;51.336;12.340;2024-02-21T00:24:14;8.50;99.90
2062;DHT22;11070;51.336;12.340;2024-02-21T00:26:40;8.50;99.90
2062;DHT22;11070;51.336;12.340;2024-02-21T00:29:06;8.50;99.90
2062;DHT22;11070;51.336;12.340;2024-02-21T00:31:31;8.50;99.90
2062;DHT22;11070;51.336;12.340;2024-02-21T00:33:57;8.50;99.90
2062;DHT22;11070;51.336;12.340;2024-02-21T00:36:23;8.50;99.90
2062;DHT22;11070;51.336;12.340;2024-02-21T00:38:49;8.40;99.90
2062;DHT22;11070;51.336;12.340;2024-02-21T00:41:15;8.40;99.90
2062;DHT22;11070;51.336;12.340;2024-02-21T00:43:41;8.40;99.90
2062;DHT22;11070;51.336;12.340;2024-02-21T00:46:07;8.40;99.90
2062;DHT22;11070;51.336;12.340;2024-02-21T00:48:33;8.40;99.90
2062;DHT22;11070;51.336;12.340;2024-02-21T00:50:59;8.40;99.90
2062;DHT22;11070;51.336;12.340;2024-02-21T00:53:25;8.40;99.90
2062;DHT22;11070;51.336;12.340;2024-02-21T00:55:50;8.40;99.90
2062;DHT22;11070;51.336;12.340;2024-02-21T00:58:16;8.30;99.90
2062;DHT22;11070;51.336;12.340;2024-02-21T01:00:42;8.30;99.90
2062;DHT22;11070;51.336;12.340;2024-02-21T01:03:07;8.30;99.90
2062;DHT22;11070;51.336;12.340;2024-02-21T01:05:36;8.30;99.90
2062;DHT22;11070;51.336;12.340;2024-02-21T01:08:02;8.20;99.90
2062;DHT22;11070;51.336;12.340;2024-02-21T01:10:27;8.30;99.90
2062;DHT22;11070;51.336;12.340;2024-02-21T01:12:53;8.30;99.90
2062;DHT22;11070;51.336;12.340;2024-02-21T01:15:18;8.30;99.90
2062;DHT22;11070;51.336;12.340;2024-02-21T01:17:44;8.20;99.90
2062;DHT22;11070;51.336;12.340;2024-02-21T01:20:10;8.20;99.90
2062;DHT22;11070;51.336;12.340;2024-02-21T01:22:36;8.20;99.90
2062;DHT22;11070;51.336;12.340;2024-02-21T01:25:02;8.20;99.90
2062;DHT22;11070;51.336;12.340;2024-02-21T01:27:27;8.30;99.90
2062;DHT22;11070;51.336;12.340;2024-02-21T01:29:53;8.20;99.90
2062;DHT22;11070;51.336;12.340;2024-02-21T01:32:19;8.20;99.90
2062;DHT22;11070;51.336;12.340;2024-02-21T01:34:44;8.30;99.90
2062;DHT22;11070;51.336;12.340;2024-02-21T01:37:10;8.30;99.90
2062;DHT22;11070;51.336;12.340;2024-02-21T01:39:35;8.20;99.90
2062;DHT22;11070;51.336;12.340;2024-02-21T01:42:01;8.20;99.90
2062;DHT22;11070;51.336;12.340;2024-02-21T01:44:27;8.20;99.90
2062;DHT22;11070;51.336;12.340;2024-02-21T01:46:52;8.30;99.90
2062;DHT22;11070;51.336;12.340;2024-02-21T01:49:19;8.30;99.90
2062;DHT22;11070;51.336;12.340;2024-02-21T01:51:46;8.30;99.90
2062;DHT22;11070;51.336;12.340;2024-02-21T01:54:14;8.30;99.90
2062;DHT22;11070;51.336;12.340;2024-02-21T01:56:41;8.30;99.90
2062;DHT22;11070;51.336;12.340;2024-02-21T01:59:07;8.30;99.90
2062;DHT22;11070;51.336;12.340;2024-02-21T02:01:33;8.30;99.90
2062;DHT22;11070;51.336;12.340;2024-02-21T02:03:59;8.30;99.90
2062;DHT22;11070;51.336;12.340;2024-02-21T02:06:25;8.30;99.90
2062;DHT22;11070;51.336;12.340;2024-02-21T02:08:51;8.30;99.90
2062;DHT22;11070;51.336;12.340;2024-02-21T02:11:17;8.30;99.90
2062;DHT22;11070;51.336;12.340;2024-02-21T02:13:42;8.30;99.90
2062;DHT22;11070;51.336;12.340;2024-02-21T02:16:08;8.30;99.90
2062;DHT22;11070;51.336;12.340;2024-02-21T02:18:34;8.30;99.90
2062;DHT22;11070;51.336;12.340;2024-02-21T02:21:05;8.30;99.90
2062;DHT22;11070;51.336;12.340;2024-02-21T02:23:35;8.30;99.90
2062;DHT22;11070;51.336;12.340;2024-02-21T02:26:01;8.30;99.90
2062;DHT22;11070;51.336;12.340;2024-02-21T02:28:27;8.30;99.90
2062;DHT22;11070;51.336;12.340;2024-02-21T02:30:52;8.30;99.90
2062;DHT22;11070;51.336;12.340;2024-02-21T02:33:18;8.20;99.90
2062;DHT22;11070;51.336;12.340;2024-02-21T02:35:44;8.30;99.90
2062;DHT22;11070;51.336;12.340;2024-02-21T02:38:10;8.20;99.90
2062;DHT22;11070;51.336;12.340;2024-02-21T02:40:38;8.20;99.90
2062;DHT22;11070;51.336;12.340;2024-02-21T02:43:04;8.30;99.90
2062;DHT22;11070;51.336;12.340;2024-02-21T02:45:30;8.20;99.90
2062;DHT22;11070;51.336;12.340;2024-02-21T02:47:57;8.20;99.90
2062;DHT22;11070;51.336;12.340;2024-02-21T02:50:26;8.20;99.90
2062;DHT22;11070;51.336;12.340;2024-02-21T02:52:55;8.20;99.90
2062;DHT22;11070;51.336;12.340;2024-02-21T02:55:21;8.20;99.90
2062;DHT22;11070;51.336;12.340;2024-02-21T02:57:47;8.10;99.90
2062;DHT22;11070;51.336;12.340;2024-02-21T03:00:13;8.10;99.90
2062;DHT22;11070;51.336;12.340;2024-02-21T03:02:41;8.10;99.90
2062;DHT22;11070;51.336;12.340;2024-02-21T03:05:20;8.10;99.90
2062;DHT22;11070;51.336;12.340;2024-02-21T03:07:47;8.10;99.90
2062;DHT22;11070;51.336;12.340;2024-02-21T03:10:13;8.10;99.90
2062;DHT22;11070;51.336;12.340;2024-02-21T03:12:39;8.10;99.90
2062;DHT22;11070;51.336;12.340;2024-02-21T03:15:06;8.10;99.90
2062;DHT22;11070;51.336;12.340;2024-02-21T03:17:32;8.10;99.90
2062;DHT22;11070;51.336;12.340;2024-02-21T03:20:00;8.10;99.90
2062;DHT22;11070;51.336;12.340;2024-02-21T03:22:26;8.10;99.90
2062;DHT22;11070;51.336;12.340;2024-02-21T03:24:52;8.10;99.90
2062;DHT22;11070;51.336;12.340;2024-02-21T03:27:17;8.10;99.90
2062;DHT22;11070;51.336;12.340;2024-02-21T03:29:43;8.10;99.90
2062;DHT22;11070;51.336;12.340;2024-02-21T03:32:09;8.20;99.90
2062;DHT22;11070;51.336;12.340;2024-02-21T03:34:35;8.20;99.90
2062;DHT22;11070;51.336;12.340;2024-02-21T03:37:00;8.20;99.90
2062;DHT22;11070;51.336;12.340;2024-02-21T03:39:26;8.20;99.90
2062;DHT22;11070;51.336;12.340;2024-02-21T03:41:52;8.20;99.90
2062;DHT22;11070;51.336;12.340;2024-02-21T03:44:17;8.20;99.90
2062;DHT22;11070;51.336;12.340;2024-02-21T03:46:43;8.20;99.90
2062;DHT22;11070;51.336;12.340;2024-02-21T03:49:09;8.20;99.90
2062;DHT22;11070;51.336;12.340;2024-02-21T03:51:34;8.20;99.90
2062;DHT22;11070;51.336;12.340;2024-02-21T03:54:00;8.20;99.90
2062;DHT22;11070;51.336;12.340;2024-02-21T03:56:26;8.20;99.90
2062;DHT22;11070;51.336;12.340;2024-02-21T03:58:51;8.20;99.90
2062;DHT22;11070;51.336;12.340;2024-02-21T04:01:17;8.20;99.90
2062;DHT22;11070;51.336;12.340;2024-02-21T04:03:44;8.20;99.90
2062;DHT22;11070;51.336;12.340;2024-02-21T04:06:09;8.20;99.90
2062;DHT22;11070;51.336;12.340;2024-02-21T04:08:35;8.20;99.90
2062;DHT22;11070;51.336;12.340;2024-02-21T04:11:01;8.20;99.90
2062;DHT22;11070;51.336;12.340;2024-02-21T04:13:26;8.20;99.90
2062;DHT22;11070;51.336;12.340;2024-02-21T04:15:55;8.10;99.90
2062;DHT22;11070;51.336;12.340;2024-02-21T04:18:22;8.10;99.90
2062;DHT22;11070;51.336;12.340;2024-02-21T04:20:48;8.10;99.90
2062;DHT22;11070;51.336;12.340;2024-02-21T04:23:14;8.10;99.90
2062;DHT22;11070;51.336;12.340;2024-02-21T04:25:39;8.10;99.90
2062;DHT22;11070;51.336;12.340;2024-02-21T04:28:05;8.10;99.90
2062;DHT22;11070;51.336;12.340;2024-02-21T04:30:31;8.10;99.90
2062;DHT22;11070;51.336;12.340;2024-02-21T04:32:56;8.00;99.90
2062;DHT22;11070;51.336;12.340;2024-02-21T04:35:22;8.00;99.90
2062;DHT22;11070;51.336;12.340;2024-02-21T04:37:48;8.00;99.90
2062;DHT22;11070;51.336;12.340;2024-02-21T04:40:14;8.00;99.90
2062;DHT22;11070;51.336;12.340;2024-02-21T04:42:40;8.00;99.90
2062;DHT22;11070;51.336;12.340;2024-02-21T04:45:06;8.00;99.90
2062;DHT22;11070;51.336;12.340;2024-02-21T04:47:32;8.00;99.90
2062;DHT22;11070;51.336;12.340;2024-02-21T04:49:57;8.00;99.90
2062;DHT22;11070;51.336;12.340;2024-02-21T04:52:23;8.00;99.90
2062;DHT22;11070;51.336;12.340;2024-02-21T04:54:49;8.00;99.90
2062;DHT22;11070;51.336;12.340;2024-02-21T04:57:14;8.00;99.90
2062;DHT22;11070;51.336;12.340;2024-02-21T04:59:45;8.00;99.90
2062;DHT22;11070;51.336;12.340;2024-02-21T05:02:13;8.00;99.90
2062;DHT22;11070;51.336;12.340;2024-02-21T05:04:38;8.00;99.90
2062;DHT22;11070;51.336;12.340;2024-02-21T05:07:05;8.00;99.90
2062;DHT22;11070;51.336;12.340;2024-02-21T05:09:31;8.00;99.90
2062;DHT22;11070;51.336;12.340;2024-02-21T05:11:56;8.00;99.90
2062;DHT22;11070;51.336;12.340;2024-02-21T05:14:24;8.00;99.90
2062;DHT22;11070;51.336;12.340;2024-02-21T05:16:50;7.90;99.90
2062;DHT22;11070;51.336;12.340;2024-02-21T05:19:16;7.90;99.90
2062;DHT22;11070;51.336;12.340;2024-02-21T05:21:41;7.90;99.90
2062;DHT22;11070;51.336;12.340;2024-02-21T05:24:07;7.90;99.90
2062;DHT22;11070;51.336;12.340;2024-02-21T05:26:33;7.90;99.90
2062;DHT22;11070;51.336;12.340;2024-02-21T05:28:58;7.90;99.90
2062;DHT22;11070;51.336;12.340;2024-02-21T05:31:25;7.90;99.90
2062;DHT22;11070;51.336;12.340;2024-02-21T05:33:51;7.90;99.90
2062;DHT22;11070;51.336;12.340;2024-02-21T05:36:16;7.90;99.90
2062;DHT22;11070;51.336;12.340;2024-02-21T05:38:42;7.90;99.90
2062;DHT22;11070;51.336;12.340;2024-02-21T05:41:08;7.90;99.90
2062;DHT22;11070;51.336;12.340;2024-02-21T05:43:33;7.90;99.90
2062;DHT22;11070;51.336;12.340;2024-02-21T05:45:59;7.90;99.90
2062;DHT22;11070;51.336;12.340;2024-02-21T05:48:25;7.90;99.90
2062;DHT22;11070;51.336;12.340;2024-02-21T05:50:51;7.90;99.90
2062;DHT22;11070;51.336;12.340;2024-02-21T05:53:16;7.90;99.90
2062;DHT22;11070;51.336;12.340;2024-02-21T05:55:42;7.90;99.90
2062;DHT22;11070;51.336;12.340;2024-02-21T05:58:08;7.90;99.90
2062;DHT22;11070;51.336;12.340;2024-02-21T06:00:39;7.80;99.90
2062;DHT22;11070;51.336;12.340;2024-02-21T06:03:04;7.80;99.90
2062;DHT22;11070;51.336;12.340;2024-02-21T06:05:31;7.80;99.90
2062;DHT22;11070;51.336;12.340;2024-02-21T06:07:57;7.80;99.90
2062;DHT22;11070;51.336;12.340;2024-02-21T06:10:23;7.70;99.90
2062;DHT22;11070;51.336;12.340;2024-02-21T06:12:48;7.70;99.90
2062;DHT22;11070;51.336;12.340;2024-02-21T06:15:14;7.60;99.90
2062;DHT22;11070;51.336;12.340;2024-02-21T06:17:39;7.60;99.90
2062;DHT22;11070;51.336;12.340;2024-02-21T06:20:05;7.60;99.90
2062;DHT22;11070;51.336;12.340;2024-02-21T06:22:31;7.60;99.90
2062;DHT22;11070;51.336;12.340;2024-02-21T06:24:57;7.60;99.90
2062;DHT22;11070;51.336;12.340;2024-02-21T06:27:23;7.60;99.90
2062;DHT22;11070;51.336;12.340;2024-02-21T06:29:49;7.60;99.90
2062;DHT22;11070;51.336;12.340;2024-02-21T06:32:15;7.60;99.90
2062;DHT22;11070;51.336;12.340;2024-02-21T06:34:41;7.50;99.90
2062;DHT22;11070;51.336;12.340;2024-02-21T06:37:06;7.50;99.90
2062;DHT22;11070;51.336;12.340;2024-02-21T06:39:32;7.50;99.90
2062;DHT22;11070;51.336;12.340;2024-02-21T06:41:57;7.50;99.90
2062;DHT22;11070;51.336;12.340;2024-02-21T06:44:23;7.50;99.90
2062;DHT22;11070;51.336;12.340;2024-02-21T06:46:49;7.60;99.90
2062;DHT22;11070;51.336;12.340;2024-02-21T06:49:14;7.60;99.90
2062;DHT22;11070;51.336;12.340;2024-02-21T06:51:44;7.70;99.90
2062;DHT22;11070;51.336;12.340;2024-02-21T06:54:10;7.70;99.90
2062;DHT22;11070;51.336;12.340;2024-02-21T06:56:37;7.70;99.90
2062;DHT22;11070;51.336;12.340;2024-02-21T06:59:03;7.70;99.90
2062;DHT22;11070;51.336;12.340;2024-02-21T07:01:29;7.80;99.90
2062;DHT22;11070;51.336;12.340;2024-02-21T07:03:55;7.80;99.90
2062;DHT22;11070;51.336;12.340;2024-02-21T07:06:22;7.80;99.90
2062;DHT22;11070;51.336;12.340;2024-02-21T07:08:47;7.80;99.90
2062;DHT22;11070;51.336;12.340;2024-02-21T07:11:13;7.80;99.90
2062;DHT22;11070;51.336;12.340;2024-02-21T07:13:39;7.80;99.90
2062;DHT22;11070;51.336;12.340;2024-02-21T07:16:05;7.80;99.90
2062;DHT22;11070;51.336;12.340;2024-02-21T07:18:31;7.90;99.90
2062;DHT22;11070;51.336;12.340;2024-02-21T07:20:57;7.90;99.90
2062;DHT22;11070;51.336;12.340;2024-02-21T07:23:24;8.00;99.90
2062;DHT22;11070;51.336;12.340;2024-02-21T07:25:49;8.10;99.90
2062;DHT22;11070;51.336;12.340;2024-02-21T07:28:15;8.20;99.90
2062;DHT22;11070;51.336;12.340;2024-02-21T07:30:42;8.30;99.90
2062;DHT22;11070;51.336;12.340;2024-02-21T07:33:07;8.30;99.90
2062;DHT22;11070;51.336;12.340;2024-02-21T07:35:33;8.30;99.90
2062;DHT22;11070;51.336;12.340;2024-02-21T07:37:59;8.30;99.90
2062;DHT22;11070;51.336;12.340;2024-02-21T07:40:24;8.30;99.90
2062;DHT22;11070;51.336;12.340;2024-02-21T07:42:50;8.30;99.90
2062;DHT22;11070;51.336;12.340;2024-02-21T07:45:16;8.30;99.90
2062;DHT22;11070;51.336;12.340;2024-02-21T07:47:42;8.40;99.90
2062;DHT22;11070;51.336;12.340;2024-02-21T07:50:08;8.40;99.90
2062;DHT22;11070;51.336;12.340;2024-02-21T07:52:33;8.40;99.90
2062;DHT22;11070;51.336;12.340;2024-02-21T07:54:59;8.40;99.90
2062;DHT22;11070;51.336;12.340;2024-02-21T07:57:25;8.40;99.90
2062;DHT22;11070;51.336;12.340;2024-02-21T07:59:50;8.50;99.90
2062;DHT22;11070;51.336;12.340;2024-02-21T08:02:16;8.50;99.90
2062;DHT22;11070;51.336;12.340;2024-02-21T08:04:42;8.50;99.90
2062;DHT22;11070;51.336;12.340;2024-02-21T08:07:08;8.50;99.90
2062;DHT22;11070;51.336;12.340;2024-02-21T08:09:35;8.50;99.90
2062;DHT22;11070;51.336;12.340;2024-02-21T08:12:02;8.60;99.90
2062;DHT22;11070;51.336;12.340;2024-02-21T08:14:27;8.60;99.90
2062;DHT22;11070;51.336;12.340;2024-02-21T08:16:53;8.60;99.90
2062;DHT22;11070;51.336;12.340;2024-02-21T08:19:21;8.60;99.90
2062;DHT22;11070;51.336;12.340;2024-02-21T08:21:47;8.60;99.90
2062;DHT22;11070;51.336;12.340;2024-02-21T08:24:16;8.60;99.90
2062;DHT22;11070;51.336;12.340;2024-02-21T08:26:43;8.60;99.90
2062;DHT22;11070;51.336;12.340;2024-02-21T08:29:11;8.60;99.90
2062;DHT22;11070;51.336;12.340;2024-02-21T08:31:37;8.60;99.90
2062;DHT22;11070;51.336;12.340;2024-02-21T08:34:03;8.70;99.90
2062;DHT22;11070;51.336;12.340;2024-02-21T08:36:35;8.70;99.90
2062;DHT22;11070;51.336;12.340;2024-02-21T08:39:02;8.70;99.90
2062;DHT22;11070;51.336;12.340;2024-02-21T08:41:31;8.80;99.90
2062;DHT22;11070;51.336;12.340;2024-02-21T08:43:57;8.70;99.90
2062;DHT22;11070;51.336;12.340;2024-02-21T08:46:23;8.70;99.90
2062;DHT22;11070;51.336;12.340;2024-02-21T08:48:53;8.80;99.90
2062;DHT22;11070;51.336;12.340;2024-02-21T08:51:19;8.70;99.90
2062;DHT22;11070;51.336;12.340;2024-02-21T08:53:48;8.70;99.90
2062;DHT22;11070;51.336;12.340;2024-02-21T08:56:14;8.60;99.90
2062;DHT22;11070;51.336;12.340;2024-02-21T08:58:40;8.60;99.90
2062;DHT22;11070;51.336;12.340;2024-02-21T09:01:06;8.60;99.90
2062;DHT22;11070;51.336;12.340;2024-02-21T09:03:36;8.60;99.90
2062;DHT22;11070;51.336;12.340;2024-02-21T09:06:03;8.60;99.90
2062;DHT22;11070;51.336;12.340;2024-02-21T09:08:29;8.60;99.90
2062;DHT22;11070;51.336;12.340;2024-02-21T09:10:55;8.60;99.90
2062;DHT22;11070;51.336;12.340;2024-02-21T09:13:21;8.60;99.90
2062;DHT22;11070;51.336;12.340;2024-02-21T09:15:50;8.60;99.90
2062;DHT22;11070;51.336;12.340;2024-02-21T09:18:16;8.60;99.90
2062;DHT22;11070;51.336;12.340;2024-02-21T09:20:42;8.60;99.90
2062;DHT22;11070;51.336;12.340;2024-02-21T09:23:09;8.70;99.90
2062;DHT22;11070;51.336;12.340;2024-02-21T09:25:34;8.70;99.90
2062;DHT22;11070;51.336;12.340;2024-02-21T09:28:02;8.70;99.90
2062;DHT22;11070;51.336;12.340;2024-02-21T09:30:28;8.70;99.90
2062;DHT22;11070;51.336;12.340;2024-02-21T09:32:54;8.70;99.90
2062;DHT22;11070;51.336;12.340;2024-02-21T09:35:19;8.80;99.90
2062;DHT22;11070;51.336;12.340;2024-02-21T09:37:47;8.80;99.90
2062;DHT22;11070;51.336;12.340;2024-02-21T09:40:15;8.80;99.90
2062;DHT22;11070;51.336;12.340;2024-02-21T09:42:42;8.80;99.90
2062;DHT22;11070;51.336;12.340;2024-02-21T09:45:25;8.80;99.90
2062;DHT22;11070;51.336;12.340;2024-02-21T09:48:30;8.80;99.90
2062;DHT22;11070;51.336;12.340;2024-02-21T09:51:01;8.80;99.90
2062;DHT22;11070;51.336;12.340;2024-02-21T09:53:27;8.90;99.90
2062;DHT22;11070;51.336;12.340;2024-02-21T09:55:58;8.90;99.90
2062;DHT22;11070;51.336;12.340;2024-02-21T09:58:26;9.00;99.90
2062;DHT22;11070;51.336;12.340;2024-02-21T10:00:53;9.00;99.90
2062;DHT22;11070;51.336;12.340;2024-02-21T10:03:19;9.00;99.90
2062;DHT22;11070;51.336;12.340;2024-02-21T10:05:48;9.00;99.90
2062;DHT22;11070;51.336;12.340;2024-02-21T10:08:15;9.10;99.90
2062;DHT22;11070;51.336;12.340;2024-02-21T10:10:44;9.10;99.90
2062;DHT22;11070;51.336;12.340;2024-02-21T10:13:11;9.00;99.90
2062;DHT22;11070;51.336;12.340;2024-02-21T10:15:37;9.00;99.90
2062;DHT22;11070;51.336;12.340;2024-02-21T10:18:03;9.10;99.90
2062;DHT22;11070;51.336;12.340;2024-02-21T10:20:29;9.20;99.90
2062;DHT22;11070;51.336;12.340;2024-02-21T10:23:06;9.20;99.90
2062;DHT22;11070;51.336;12.340;2024-02-21T10:25:35;9.30;99.90
2062;DHT22;11070;51.336;12.340;2024-02-21T10:28:04;9.30;99.90
2062;DHT22;11070;51.336;12.340;2024-02-21T10:30:29;9.20;99.90
2062;DHT22;11070;51.336;12.340;2024-02-21T10:32:56;9.20;99.90
2062;DHT22;11070;51.336;12.340;2024-02-21T10:37:59;9.30;99.90
2062;DHT22;11070;51.336;12.340;2024-02-21T10:40:29;9.30;99.90
2062;DHT22;11070;51.336;12.340;2024-02-21T10:43:00;9.20;99.90
2062;DHT22;11070;51.336;12.340;2024-02-21T10:45:35;9.30;99.90
2062;DHT22;11070;51.336;12.340;2024-02-21T10:48:11;9.40;99.90
2062;DHT22;11070;51.336;12.340;2024-02-21T10:53:35;9.50;99.90
2062;DHT22;11070;51.336;12.340;2024-02-21T10:58:43;9.70;99.90
2062;DHT22;11070;51.336;12.340;2024-02-21T11:01:09;9.70;99.90
2062;DHT22;11070;51.336;12.340;2024-02-21T11:03:36;9.70;99.90
2062;DHT22;11070;51.336;12.340;2024-02-21T11:06:02;9.70;99.90
2062;DHT22;11070;51.336;12.340;2024-02-21T11:08:30;9.60;99.90
2062;DHT22;11070;51.336;12.340;2024-02-21T11:10:59;9.70;99.90
2062;DHT22;11070;51.336;12.340;2024-02-21T11:13:51;9.60;99.90
2062;DHT22;11070;51.336;12.340;2024-02-21T11:16:23;9.70;99.90
2062;DHT22;11070;51.336;12.340;2024-02-21T11:18:49;9.70;99.90
2062;DHT22;11070;51.336;12.340;2024-02-21T11:21:15;9.80;99.90
2062;DHT22;11070;51.336;12.340;2024-02-21T11:23:41;9.90;99.90
2062;DHT22;11070;51.336;12.340;2024-02-21T11:26:10;10.00;99.90
2062;DHT22;11070;51.336;12.340;2024-02-21T11:28:44;10.00;99.90
2062;DHT22;11070;51.336;12.340;2024-02-21T11:31:13;10.00;99.90
2062;DHT22;11070;51.336;12.340;2024-02-21T11:33:43;9.90;99.90
2062;DHT22;11070;51.336;12.340;2024-02-21T11:36:25;10.10;99.90
2062;DHT22;11070;51.336;12.340;2024-02-21T11:38:52;10.10;99.90
2062;DHT22;11070;51.336;12.340;2024-02-21T11:41:19;10.10;99.90
2062;DHT22;11070;51.336;12.340;2024-02-21T11:43:46;10.00;99.90
2062;DHT22;11070;51.336;12.340;2024-02-21T11:46:14;10.10;99.90
2062;DHT22;11070;51.336;12.340;2024-02-21T11:48:41;10.00;99.90
2062;DHT22;11070;51.336;12.340;2024-02-21T11:51:07;9.90;99.90
2062;DHT22;11070;51.336;12.340;2024-02-21T11:53:32;9.90;99.90
2062;DHT22;11070;51.336;12.340;2024-02-21T11:55:59;9.90;99.90
2062;DHT22;11070;51.336;12.340;2024-02-21T11:58:25;10.00;99.90
2062;DHT22;11070;51.336;12.340;2024-02-21T12:00:52;10.00;99.90
2062;DHT22;11070;51.336;12.340;2024-02-21T12:03:18;10.00;99.90
2062;DHT22;11070;51.336;12.340;2024-02-21T12:05:43;10.00;99.90
2062;DHT22;11070;51.336;12.340;2024-02-21T12:08:09;10.20;99.90
2062;DHT22;11070;51.336;12.340;2024-02-21T12:10:36;10.30;99.90
2062;DHT22;11070;51.336;12.340;2024-02-21T12:13:11;10.50;99.90
2062;DHT22;11070;51.336;12.340;2024-02-21T12:15:39;10.80;99.90
2062;DHT22;11070;51.336;12.340;2024-02-21T12:18:05;10.70;99.90
2062;DHT22;11070;51.336;12.340;2024-02-21T12:20:31;10.40;99.90
2062;DHT22;11070;51.336;12.340;2024-02-21T12:23:00;10.40;99.90
2062;DHT22;11070;51.336;12.340;2024-02-21T12:25:26;10.30;99.90
2062;DHT22;11070;51.336;12.340;2024-02-21T12:27:52;10.40;99.90
2062;DHT22;11070;51.336;12.340;2024-02-21T12:30:18;10.70;99.90
2062;DHT22;11070;51.336;12.340;2024-02-21T12:32:45;10.80;99.90
2062;DHT22;11070;51.336;12.340;2024-02-21T12:35:11;10.80;99.90
2062;DHT22;11070;51.336;12.340;2024-02-21T12:37:37;10.80;99.90
2062;DHT22;11070;51.336;12.340;2024-02-21T12:40:08;11.10;99.90
2062;DHT22;11070;51.336;12.340;2024-02-21T12:42:34;11.20;99.90
2062;DHT22;11070;51.336;12.340;2024-02-21T12:45:01;11.20;99.90
2062;DHT22;11070;51.336;12.340;2024-02-21T12:47:28;11.40;99.90
2062;DHT22;11070;51.336;12.340;2024-02-21T12:49:54;11.40;99.90
2062;DHT22;11070;51.336;12.340;2024-02-21T12:52:19;11.70;99.90
2062;DHT22;11070;51.336;12.340;2024-02-21T12:54:45;11.80;99.90
2062;DHT22;11070;51.336;12.340;2024-02-21T12:57:11;11.50;99.90
2062;DHT22;11070;51.336;12.340;2024-02-21T12:59:36;13.00;99.90
2062;DHT22;11070;51.336;12.340;2024-02-21T13:02:02;12.90;99.90
2062;DHT22;11070;51.336;12.340;2024-02-21T13:04:28;13.50;99.90
2062;DHT22;11070;51.336;12.340;2024-02-21T13:06:53;14.10;99.90
2062;DHT22;11070;51.336;12.340;2024-02-21T13:09:20;14.20;99.90
2062;DHT22;11070;51.336;12.340;2024-02-21T13:11:46;13.60;99.90
2062;DHT22;11070;51.336;12.340;2024-02-21T13:14:12;13.90;99.90
2062;DHT22;11070;51.336;12.340;2024-02-21T13:16:38;13.70;99.90
2062;DHT22;11070;51.336;12.340;2024-02-21T13:19:07;13.40;99.90
2062;DHT22;11070;51.336;12.340;2024-02-21T13:21:34;13.50;99.90
2062;DHT22;11070;51.336;12.340;2024-02-21T13:24:00;13.30;99.90
2062;DHT22;11070;51.336;12.340;2024-02-21T13:26:26;13.20;99.90
2062;DHT22;11070;51.336;12.340;2024-02-21T13:28:52;13.10;99.90
2062;DHT22;11070;51.336;12.340;2024-02-21T13:31:18;13.30;99.90
2062;DHT22;11070;51.336;12.340;2024-02-21T13:33:44;13.40;99.90
2062;DHT22;11070;51.336;12.340;2024-02-21T13:36:10;13.60;99.90
2062;DHT22;11070;51.336;12.340;2024-02-21T13:38:36;13.40;99.90
2062;DHT22;11070;51.336;12.340;2024-02-21T13:41:01;13.60;99.90
2062;DHT22;11070;51.336;12.340;2024-02-21T13:43:27;13.50;99.90
2062;DHT22;11070;51.336;12.340;2024-02-21T13:45:58;12.80;99.90
2062;DHT22;11070;51.336;12.340;2024-02-21T13:48:24;12.50;99.90
2062;DHT22;11070;51.336;12.340;2024-02-21T13:50:50;12.80;99.90
2062;DHT22;11070;51.336;12.340;2024-02-21T13:53:16;13.00;99.90
2062;DHT22;11070;51.336;12.340;2024-02-21T13:55:44;12.60;99.90
2062;DHT22;11070;51.336;12.340;2024-02-21T13:58:10;12.70;99.90
2062;DHT22;11070;51.336;12.340;2024-02-21T14:00:36;12.70;99.90
2062;DHT22;11070;51.336;12.340;2024-02-21T14:03:02;12.90;99.90
2062;DHT22;11070;51.336;12.340;2024-02-21T14:05:28;12.80;99.90
2062;DHT22;11070;51.336;12.340;2024-02-21T14:07:54;13.30;99.90
2062;DHT22;11070;51.336;12.340;2024-02-21T14:10:20;13.20;99.90
2062;DHT22;11070;51.336;12.340;2024-02-21T14:12:46;13.30;99.90
2062;DHT22;11070;51.336;12.340;2024-02-21T14:15:13;13.60;97.80
2062;DHT22;11070;51.336;12.340;2024-02-21T14:17:39;13.50;99.00
2062;DHT22;11070;51.336;12.340;2024-02-21T14:20:07;13.80;97.10
2062;DHT22;11070;51.336;12.340;2024-02-21T14:22:33;13.70;95.40
2062;DHT22;11070;51.336;12.340;2024-02-21T14:25:00;13.50;96.40
2062;DHT22;11070;51.336;12.340;2024-02-21T14:27:26;13.70;96.30
2062;DHT22;11070;51.336;12.340;2024-02-21T14:29:51;13.50;95.10
2062;DHT22;11070;51.336;12.340;2024-02-21T14:32:18;13.10;96.40
2062;DHT22;11070;51.336;12.340;2024-02-21T14:34:45;13.00;98.40
2062;DHT22;11070;51.336;12.340;2024-02-21T14:37:11;12.80;99.90
2062;DHT22;11070;51.336;12.340;2024-02-21T14:39:36;12.70;99.90
2062;DHT22;11070;51.336;12.340;2024-02-21T14:42:02;12.40;99.90
2062;DHT22;11070;51.336;12.340;2024-02-21T14:44:28;12.20;99.90
2062;DHT22;11070;51.336;12.340;2024-02-21T14:46:54;12.10;99.90
2062;DHT22;11070;51.336;12.340;2024-02-21T14:49:19;12.10;99.90
2062;DHT22;11070;51.336;12.340;2024-02-21T14:51:45;12.20;99.90
2062;DHT22;11070;51.336;12.340;2024-02-21T14:54:11;12.20;99.90
2062;DHT22;11070;51.336;12.340;2024-02-21T14:56:37;12.40;99.90
2062;DHT22;11070;51.336;12.340;2024-02-21T14:59:03;12.50;99.90
2062;DHT22;11070;51.336;12.340;2024-02-21T15:01:29;12.30;99.90
2062;DHT22;11070;51.336;12.340;2024-02-21T15:03:55;12.20;99.90
2062;DHT22;11070;51.336;12.340;2024-02-21T15:06:20;12.20;99.90
2062;DHT22;11070;51.336;12.340;2024-02-21T15:08:46;12.20;99.90
2062;DHT22;11070;51.336;12.340;2024-02-21T15:11:14;12.20;99.90
2062;DHT22;11070;51.336;12.340;2024-02-21T15:13:39;12.10;99.90
2062;DHT22;11070;51.336;12.340;2024-02-21T15:16:05;12.00;99.90
2062;DHT22;11070;51.336;12.340;2024-02-21T15:18:31;12.00;99.90
2062;DHT22;11070;51.336;12.340;2024-02-21T15:20:59;12.00;99.60
2062;DHT22;11070;51.336;12.340;2024-02-21T15:23:25;11.90;99.90
2062;DHT22;11070;51.336;12.340;2024-02-21T15:25:51;11.90;99.90
2062;DHT22;11070;51.336;12.340;2024-02-21T15:28:16;11.80;99.90
2062;DHT22;11070;51.336;12.340;2024-02-21T15:30:42;11.80;99.90
2062;DHT22;11070;51.336;12.340;2024-02-21T15:33:08;11.70;99.90
2062;DHT22;11070;51.336;12.340;2024-02-21T15:35:34;11.60;99.90
2062;DHT22;11070;51.336;12.340;2024-02-21T15:38:01;11.60;99.90
2062;DHT22;11070;51.336;12.340;2024-02-21T15:40:26;11.50;99.90
2062;DHT22;11070;51.336;12.340;2024-02-21T15:42:52;11.50;99.90
2062;DHT22;11070;51.336;12.340;2024-02-21T15:45:19;11.50;99.90
2062;DHT22;11070;51.336;12.340;2024-02-21T15:47:44;11.40;99.90